Islip Manor, New York
Current Conditions -  °F | °C
As of 11:56 AM on Saturday 20 Dec 2014 (Local Time) from KISP Reporting Station
Overcast Overcast  
Wind Chill: 26°   Ceiling: 2500
Heat Index: 32°   Visibility: 10mi
Dew Point: 21°   Wind: 6mph
Humidity: 64%   Direction: 320°NW
Pressure: 30.26"   Gusts: NA
Location:  40.7426°N, 73.2171°W
Report Text: KISP 201656Z 32005KT 10SM OVC025 00/M06 A3026 RMK AO2 SLP246 T00001061
Loading
Personal Weather Stations






























Interactive Weather Map New forecast layout! Learn more

10-Day Weather Forecast

Advertisements
Track Severe Weather on mobile